»·PEaware :: N445KQ KORS-KBFI

N445KQ :: KORS-KBFI

FLIGHT INFORMATION

Flight Status: Arrived
Operator: Privately registered:
United States
More flights under this callsign
Pilot: Anonymous 10623 (10623)
Aircraft: Unknown
(KODI)
More flights by this aircraft type
Origin: KORS Orcas Island
United States
Destination: KBFI Boeing Field/King Co Intl
United States
More flights between these airports :: More routes between these airports
Route: FEGBA2 FEGBA CVV
File this flight plan on PilotEdge
Remarks:
Altitude:
(Current/Filed)
9,000ft
Speed:
(Current/Filed)
170kts
Departed: 18-Aug-21 12:56 PM
Arrived: 18-Aug-21 01:26 PM
Distance/Time
Traveled:
74nm/0:29
Distance/Time
To Go:
Arrived

Flight Plot

Page will automatically refresh every two minutes.

Flight plan parsing failed; only flown route is shown


Map Options




Map Legend


Flown Route
Filed Route
Departure Airport
Arrival Airport
Navaid (VOR, NDB)
Fix

Horizontal Profiles

Position Reports

Time Latitude Longitude Heading Altitude Ground
Speed
18-Aug-21 12:36 48.709688 -122.909496 233 27ft 0kts
18-Aug-21 12:37 48.709688 -122.909496 233 27ft 0kts
18-Aug-21 12:38 48.709688 -122.909496 233 27ft 0kts
18-Aug-21 12:39 48.709688 -122.909496 233 27ft 0kts
18-Aug-21 12:40 48.709688 -122.909496 233 27ft 0kts
18-Aug-21 12:41 48.709688 -122.909496 233 27ft 0kts
18-Aug-21 12:42 48.709688 -122.909496 233 27ft 0kts
18-Aug-21 12:43 48.709688 -122.909496 233 27ft 0kts
18-Aug-21 12:44 48.709688 -122.909496 233 27ft 0kts
18-Aug-21 12:45 48.709688 -122.909496 233 27ft 0kts
18-Aug-21 12:46 48.709688 -122.909496 233 27ft 0kts
18-Aug-21 12:47 48.709688 -122.909496 233 27ft 0kts
18-Aug-21 12:48 48.710161 -122.909959 359 27ft 5kts
18-Aug-21 12:49 48.711752 -122.909968 6 27ft 5kts
18-Aug-21 12:50 48.712105 -122.909978 297 27ft 0kts
18-Aug-21 12:51 48.712105 -122.909978 297 27ft 0kts
18-Aug-21 12:52 48.712105 -122.909978 297 27ft 0kts
18-Aug-21 12:53 48.712105 -122.909978 297 27ft 0kts
18-Aug-21 12:54 48.711821 -122.910579 180 27ft 0kts
18-Aug-21 12:55 48.689197 -122.910688 178 1116ft 111kts
18-Aug-21 12:56 48.658926 -122.907762 179 2932ft 111kts
18-Aug-21 12:57 48.628700 -122.908799 181 4530ft 111kts
18-Aug-21 12:58 48.597626 -122.912068 193 5970ft 114kts
18-Aug-21 12:59 48.566535 -122.896826 151 7263ft 121kts
18-Aug-21 13:00 48.534776 -122.878234 159 8514ft 124kts
18-Aug-21 13:01 48.498039 -122.859581 162 9002ft 164kts
18-Aug-21 13:02 48.451861 -122.835552 161 8985ft 181kts
18-Aug-21 13:03 48.404402 -122.809901 160 8981ft 182kts
18-Aug-21 13:04 48.356584 -122.784204 160 8982ft 183kts
18-Aug-21 13:05 48.308671 -122.758567 160 8982ft 183kts
18-Aug-21 13:06 48.260735 -122.732959 160 8982ft 184kts
18-Aug-21 13:07 48.210523 -122.729237 185 8982ft 182kts
18-Aug-21 13:08 48.159931 -122.734413 185 8982ft 182kts
18-Aug-21 13:09 48.109373 -122.739567 185 8982ft 182kts
18-Aug-21 13:10 48.058693 -122.744728 185 8983ft 182kts
18-Aug-21 13:11 48.007695 -122.749908 185 8844ft 189kts
18-Aug-21 13:12 47.954416 -122.755395 185 8285ft 193kts
18-Aug-21 13:13 47.900889 -122.761178 185 7553ft 192kts
18-Aug-21 13:14 47.847825 -122.766964 178 6802ft 191kts
18-Aug-21 13:15 47.808268 -122.720088 134 6065ft 189kts
18-Aug-21 13:16 47.771302 -122.664569 133 5321ft 189kts
18-Aug-21 13:17 47.734635 -122.609156 134 4575ft 187kts
18-Aug-21 13:18 47.698621 -122.554307 132 3896ft 184kts
18-Aug-21 13:19 47.668068 -122.495125 121 3388ft 173kts
18-Aug-21 13:20 47.644818 -122.439417 122 2215ft 146kts
18-Aug-21 13:21 47.624027 -122.387693 119 1109ft 149kts
18-Aug-21 13:22 47.591420 -122.352229 147 899ft 137kts
18-Aug-21 13:23 47.565606 -122.331070 149 571ft 96kts
18-Aug-21 13:24 47.545562 -122.313940 149 193ft 75kts
18-Aug-21 13:25 47.532431 -122.302568 78 23ft 6kts
18-Aug-21 13:26 47.535507 -122.304124 326 23ft 11kts
18-Aug-21 13:27 47.539621 -122.307058 329 23ft 5kts
18-Aug-21 13:28 47.539950 -122.307431 323 23ft 0kts
18-Aug-21 13:29 47.539950 -122.307431 323 23ft 0kts

Navigation Log

Ident Type
Flight plan parsing failed, navigation log unavailable